Aviation Digital Data Service (ADDS)

Output produced by METARs form (1737 UTC 21 September 2019)
found at http://aviationweather.gov/metar/data/
 
KBPT 211653Z 10011KT 10SM SCT023 SCT029 31/24 A3010 RMK AO2 SLP193 T03060244
KBPT 211140Z 2112/2212 08005KT P6SM SKC 
     FM211500 12012KT P6SM SCT030 
     FM211800 13012KT P6SM VCSH SCT050 
     FM220200 13010KT P6SM SCT250